createdAt,value
2022-08-26T00:03:15.311Z,95.67
2022-08-26T00:08:35.887Z,96.28
2022-08-26T00:13:50.685Z,96.59
2022-08-26T00:19:24.642Z,96.99
2022-08-26T00:24:41.207Z,97.36
2022-08-26T00:30:15.157Z,97.63
2022-08-26T00:35:45.249Z,97.79
2022-08-26T00:41:09.709Z,98.09
2022-08-26T00:46:22.290Z,98.18
2022-08-26T00:51:34.365Z,98.45
2022-08-26T00:57:28.375Z,98.60
2022-08-26T01:03:45.822Z,98.89
2022-08-26T01:09:52.924Z,99.09
2022-08-26T01:16:00.267Z,99.19
2022-08-26T01:22:19.962Z,99.36
2022-08-26T01:27:51.994Z,99.45
2022-08-26T01:33:31.084Z,99.42
2022-08-26T01:38:47.567Z,99.64
2022-08-26T01:43:56.344Z,99.69
2022-08-26T01:50:06.540Z,99.64
2022-08-26T01:55:27.641Z,99.63
2022-08-26T02:00:45.758Z,99.74
2022-08-26T02:06:11.211Z,99.81
2022-08-26T02:12:05.454Z,99.87
2022-08-26T02:17:41.297Z,99.98
2022-08-26T02:22:47.985Z,100.00
2022-08-26T02:27:54.704Z,100.00
2022-08-26T02:33:17.315Z,100.00
2022-08-26T02:38:36.078Z,100.00
2022-08-26T02:44:07.345Z,100.00
2022-08-26T02:49:12.479Z,100.00
2022-08-26T02:54:24.141Z,100.00
2022-08-26T02:59:36.885Z,100.00
2022-08-26T03:04:41.819Z,100.00
2022-08-26T03:10:08.437Z,100.00
2022-08-26T03:15:38.740Z,100.00
2022-08-26T03:21:32.432Z,100.00
2022-08-26T03:27:07.244Z,100.00
2022-08-26T03:32:24.056Z,100.00
2022-08-26T03:37:42.966Z,100.00
2022-08-26T03:43:23.409Z,100.00
2022-08-26T03:48:39.912Z,100.00
2022-08-26T03:53:51.371Z,100.00
2022-08-26T03:59:09.447Z,100.00
2022-08-26T04:04:30.872Z,100.00
2022-08-26T04:09:48.878Z,100.00
2022-08-26T04:15:28.319Z,100.00
2022-08-26T04:20:39.572Z,100.00
2022-08-26T04:26:16.249Z,100.00
2022-08-26T04:31:55.361Z,100.00
2022-08-26T04:37:13.665Z,100.00
2022-08-26T04:42:25.867Z,100.00
2022-08-26T04:47:32.560Z,100.00
2022-08-26T04:53:46.267Z,99.92
2022-08-26T04:59:19.173Z,99.88
2022-08-26T05:05:11.304Z,99.66
2022-08-26T05:11:08.070Z,99.25
2022-08-26T05:16:47.745Z,99.03
2022-08-26T05:22:31.147Z,98.91
2022-08-26T05:27:53.782Z,98.58
2022-08-26T05:33:05.825Z,98.54
2022-08-26T05:38:20.205Z,98.37
2022-08-26T05:43:22.693Z,98.20
2022-08-26T05:48:53.428Z,98.02
2022-08-26T05:54:28.096Z,97.88
2022-08-26T05:59:53.386Z,97.76
2022-08-26T06:05:09.997Z,97.30
2022-08-26T06:10:41.559Z,96.98
2022-08-26T06:16:19.866Z,96.44
2022-08-26T06:21:54.895Z,96.04
2022-08-26T06:27:11.481Z,95.70
2022-08-26T06:32:17.500Z,95.15
2022-08-26T06:37:33.171Z,94.93
2022-08-26T06:42:40.284Z,94.57
2022-08-26T06:47:42.530Z,94.22
2022-08-26T06:52:54.937Z,93.74
2022-08-26T06:57:59.066Z,93.47
2022-08-26T07:03:17.605Z,93.11
2022-08-26T07:08:28.906Z,92.42
2022-08-26T07:13:38.286Z,91.89
2022-08-26T07:18:54.853Z,91.20
2022-08-26T07:24:05.999Z,90.89
2022-08-26T07:29:13.522Z,89.85
2022-08-26T07:34:18.872Z,88.87
2022-08-26T07:39:21.217Z,87.85
2022-08-26T07:44:27.257Z,87.19
2022-08-26T07:49:32.617Z,86.28
2022-08-26T07:54:38.067Z,85.24
2022-08-26T08:00:10.483Z,83.84
2022-08-26T08:05:50.493Z,82.41
2022-08-26T08:10:59.625Z,81.25
2022-08-26T08:16:05.842Z,80.99
2022-08-26T08:21:29.017Z,80.06
2022-08-26T08:26:38.124Z,79.42
2022-08-26T08:31:58.061Z,79.35
2022-08-26T08:37:08.712Z,79.16
2022-08-26T08:42:42.654Z,78.23
2022-08-26T08:47:59.072Z,77.73
2022-08-26T08:53:13.561Z,77.73
2022-08-26T08:58:21.508Z,77.05
2022-08-26T09:03:56.168Z,76.63
2022-08-26T09:09:10.652Z,76.31
2022-08-26T09:14:38.513Z,75.67
2022-08-26T09:19:49.828Z,74.72
2022-08-26T09:24:55.377Z,73.65
2022-08-26T09:29:59.874Z,73.39
2022-08-26T09:35:11.582Z,73.26
2022-08-26T09:40:23.014Z,72.98
2022-08-26T09:45:50.132Z,71.57
2022-08-26T09:51:02.629Z,69.65
2022-08-26T09:56:16.805Z,68.32
2022-08-26T10:01:25.799Z,66.12
2022-08-26T10:06:29.007Z,64.92
2022-08-26T10:11:42.057Z,65.22
2022-08-26T10:16:51.133Z,64.44
2022-08-26T10:21:54.152Z,63.89
2022-08-26T10:27:15.114Z,63.54
2022-08-26T10:32:31.864Z,63.31
2022-08-26T10:37:46.410Z,62.00
2022-08-26T10:43:07.192Z,61.87
2022-08-26T10:48:19.278Z,61.29
2022-08-26T10:53:51.780Z,60.43
2022-08-26T10:59:36.840Z,59.66
2022-08-26T11:05:08.714Z,59.18
2022-08-26T11:10:24.051Z,57.83
2022-08-26T11:15:38.614Z,56.98
2022-08-26T11:20:45.971Z,56.60
2022-08-26T11:26:01.342Z,55.12
2022-08-26T11:31:37.635Z,54.52
2022-08-26T11:36:54.610Z,53.34
2022-08-26T11:42:05.373Z,52.80
2022-08-26T11:47:15.777Z,51.23
2022-08-26T11:52:22.637Z,49.54
2022-08-26T11:57:26.525Z,44.30
2022-08-26T12:02:38.525Z,43.11
2022-08-26T12:07:42.679Z,42.20
2022-08-26T12:12:55.270Z,42.70
2022-08-26T12:18:00.491Z,42.82
2022-08-26T12:23:02.874Z,42.19
2022-08-26T12:28:08.769Z,40.52
2022-08-26T12:33:23.090Z,40.41
2022-08-26T12:38:34.974Z,40.57
2022-08-26T12:43:47.097Z,41.47
2022-08-26T12:48:50.063Z,40.28
2022-08-26T12:54:07.008Z,39.92
2022-08-26T12:59:36.367Z,39.29
2022-08-26T13:04:43.420Z,39.24
2022-08-26T13:10:01.374Z,38.95
2022-08-26T13:15:08.855Z,39.35
2022-08-26T13:20:20.654Z,40.02
2022-08-26T13:25:29.425Z,40.07
2022-08-26T13:31:13.597Z,40.29
2022-08-26T13:36:53.681Z,39.97
2022-08-26T13:42:12.990Z,40.23
2022-08-26T13:47:22.093Z,40.82
2022-08-26T13:52:48.699Z,40.60
2022-08-26T13:57:55.763Z,40.79
2022-08-26T14:02:59.156Z,40.71
2022-08-26T14:08:01.941Z,41.08
2022-08-26T14:13:05.169Z,41.00
2022-08-26T14:18:41.483Z,41.16
2022-08-26T14:23:44.903Z,40.98
2022-08-26T14:28:50.553Z,41.01
2022-08-26T14:33:56.930Z,40.69
2022-08-26T14:39:22.706Z,40.62
2022-08-26T14:44:58.209Z,41.06
2022-08-26T14:50:04.194Z,41.37
2022-08-26T14:55:07.029Z,40.88
2022-08-26T15:00:12.580Z,40.74
2022-08-26T15:05:15.237Z,41.01
2022-08-26T15:10:18.358Z,41.25
2022-08-26T15:15:24.561Z,41.32
2022-08-26T15:20:43.759Z,41.41
2022-08-26T15:26:23.649Z,41.67
2022-08-26T15:31:42.160Z,41.61
2022-08-26T15:36:47.500Z,41.56
2022-08-26T15:41:49.983Z,41.45
2022-08-26T15:46:58.276Z,41.78
2022-08-26T15:52:05.464Z,42.12
2022-08-26T15:57:12.355Z,42.55
2022-08-26T16:02:32.308Z,42.99
2022-08-26T16:07:46.873Z,42.98
2022-08-26T16:13:39.933Z,42.75
2022-08-26T16:18:43.555Z,42.81
2022-08-26T16:23:46.975Z,43.19
2022-08-26T16:28:56.019Z,43.49
2022-08-26T16:34:17.854Z,43.90
2022-08-26T16:39:20.511Z,44.18
2022-08-26T16:44:23.768Z,44.45
2022-08-26T16:49:30.658Z,45.13
2022-08-26T16:54:50.690Z,45.35
2022-08-26T17:00:06.052Z,45.96
2022-08-26T17:05:18.811Z,46.72
2022-08-26T17:10:33.089Z,47.52
2022-08-26T17:16:08.741Z,48.22
2022-08-26T17:21:20.771Z,48.88
2022-08-26T17:26:37.970Z,49.65
2022-08-26T17:31:54.557Z,50.69
2022-08-26T17:37:00.553Z,51.86
2022-08-26T17:42:06.429Z,52.50
2022-08-26T17:47:12.972Z,52.93
2022-08-26T17:52:37.808Z,52.99
2022-08-26T17:58:01.025Z,52.93
2022-08-26T18:03:09.130Z,53.02
2022-08-26T18:08:15.267Z,52.97
2022-08-26T18:13:27.025Z,53.31
2022-08-26T18:18:33.025Z,53.54
2022-08-26T18:23:36.734Z,53.56
2022-08-26T18:28:42.232Z,53.76
2022-08-26T18:34:00.787Z,54.07
2022-08-26T18:39:05.117Z,54.77
2022-08-26T18:44:13.664Z,55.21
2022-08-26T18:49:18.250Z,55.68
2022-08-26T18:54:23.510Z,56.35
2022-08-26T18:59:39.844Z,56.93
2022-08-26T19:04:52.867Z,57.67
2022-08-26T19:10:12.466Z,58.24
2022-08-26T19:15:23.974Z,58.57
2022-08-26T19:20:26.402Z,59.09
2022-08-26T19:25:47.109Z,59.49
2022-08-26T19:30:53.383Z,60.10
2022-08-26T19:35:59.597Z,60.61
2022-08-26T19:41:17.597Z,61.10
2022-08-26T19:47:18.761Z,61.29
2022-08-26T19:52:29.834Z,61.60
2022-08-26T19:57:37.023Z,61.77
2022-08-26T20:03:15.593Z,61.97
2022-08-26T20:08:22.364Z,62.12
2022-08-26T20:13:30.732Z,62.31
2022-08-26T20:19:01.791Z,62.44
2022-08-26T20:24:27.345Z,62.48
2022-08-26T20:29:40.901Z,62.55
2022-08-26T20:34:43.165Z,62.65
2022-08-26T20:39:47.497Z,62.73
2022-08-26T20:44:54.714Z,62.76
2022-08-26T20:49:57.624Z,63.11
2022-08-26T20:55:09.604Z,63.26
2022-08-26T21:00:15.931Z,63.47
2022-08-26T21:05:30.011Z,63.71
2022-08-26T21:10:47.548Z,64.04
2022-08-26T21:16:41.925Z,64.29
2022-08-26T21:22:36.891Z,64.62
2022-08-26T21:28:40.775Z,64.88
2022-08-26T21:34:41.558Z,65.01
2022-08-26T21:39:53.506Z,65.20
2022-08-26T21:45:11.636Z,65.36
2022-08-26T21:50:43.580Z,65.57
2022-08-26T21:56:18.130Z,65.72
2022-08-26T22:01:27.445Z,65.91
2022-08-26T22:07:09.558Z,66.31
2022-08-26T22:12:34.427Z,67.02
2022-08-26T22:17:52.221Z,67.40
2022-08-26T22:23:07.099Z,67.49
2022-08-26T22:28:24.821Z,67.78
2022-08-26T22:33:36.181Z,68.03
2022-08-26T22:39:04.178Z,68.35
2022-08-26T22:44:09.155Z,68.41
2022-08-26T22:49:23.214Z,68.55
2022-08-26T22:54:50.950Z,68.81
2022-08-26T23:00:04.752Z,69.08
2022-08-26T23:06:09.929Z,69.34
2022-08-26T23:12:03.623Z,69.54
2022-08-26T23:17:22.127Z,69.55
2022-08-26T23:22:41.028Z,69.70
2022-08-26T23:28:01.988Z,69.74
2022-08-26T23:33:27.670Z,69.87
2022-08-26T23:39:06.417Z,69.84
2022-08-26T23:45:18.983Z,69.87
2022-08-26T23:51:20.830Z,69.70
2022-08-26T23:56:59.165Z,69.78
